sensor_id;sensor_type;location;lat;lon;timestamp;temperature;humidity
42145;DHT22;27813;43.516;11.890;2022-11-20T00:25:21;8.00;97.10
42145;DHT22;27813;43.516;11.890;2022-11-20T08:39:33;7.40;95.90
42145;DHT22;27813;43.516;11.890;2022-11-20T08:48:53;7.50;96.00
42145;DHT22;27813;43.516;11.890;2022-11-20T08:53:07;7.70;96.00
42145;DHT22;27813;43.516;11.890;2022-11-20T08:57:11;7.70;95.90
42145;DHT22;27813;43.516;11.890;2022-11-20T09:01:15;7.70;95.90
42145;DHT22;27813;43.516;11.890;2022-11-20T09:05:20;7.80;96.10
42145;DHT22;27813;43.516;11.890;2022-11-20T09:09:24;7.90;96.00
42145;DHT22;27813;43.516;11.890;2022-11-20T09:13:29;8.00;96.10
42145;DHT22;27813;43.516;11.890;2022-11-20T09:17:34;8.10;96.10
42145;DHT22;27813;43.516;11.890;2022-11-20T09:21:38;8.30;96.40
42145;DHT22;27813;43.516;11.890;2022-11-20T09:25:43;8.40;96.40
42145;DHT22;27813;43.516;11.890;2022-11-20T09:29:48;8.50;96.40
42145;DHT22;27813;43.516;11.890;2022-11-20T09:33:52;8.60;96.50
42145;DHT22;27813;43.516;11.890;2022-11-20T09:37:57;8.80;96.70
42145;DHT22;27813;43.516;11.890;2022-11-20T09:46:53;9.30;96.80
42145;DHT22;27813;43.516;11.890;2022-11-20T09:55:20;9.60;96.60
42145;DHT22;27813;43.516;11.890;2022-11-20T10:03:53;9.90;96.70
42145;DHT22;27813;43.516;11.890;2022-11-20T10:08:21;10.10;96.70
42145;DHT22;27813;43.516;11.890;2022-11-20T10:13:24;10.30;96.60
42145;DHT22;27813;43.516;11.890;2022-11-20T10:26:04;10.90;96.80
42145;DHT22;27813;43.516;11.890;2022-11-20T10:30:14;11.20;96.70
42145;DHT22;27813;43.516;11.890;2022-11-20T10:34:25;11.40;96.60
42145;DHT22;27813;43.516;11.890;2022-11-20T10:38:37;11.50;96.40
42145;DHT22;27813;43.516;11.890;2022-11-20T10:42:45;11.50;96.20
42145;DHT22;27813;43.516;11.890;2022-11-20T10:46:50;11.70;96.20
42145;DHT22;27813;43.516;11.890;2022-11-20T10:56:03;11.80;96.00
42145;DHT22;27813;43.516;11.890;2022-11-20T11:00:06;11.70;95.90
42145;DHT22;27813;43.516;11.890;2022-11-20T11:08:39;12.10;96.50
42145;DHT22;27813;43.516;11.890;2022-11-20T11:12:46;12.40;96.60
42145;DHT22;27813;43.516;11.890;2022-11-20T11:23:46;12.40;95.50
42145;DHT22;27813;43.516;11.890;2022-11-20T11:38:38;12.20;94.50
42145;DHT22;27813;43.516;11.890;2022-11-20T11:42:46;12.10;95.00
42145;DHT22;27813;43.516;11.890;2022-11-20T11:46:56;12.10;94.90
42145;DHT22;27813;43.516;11.890;2022-11-20T11:51:01;12.20;95.00
42145;DHT22;27813;43.516;11.890;2022-11-20T11:55:09;12.50;95.60
42145;DHT22;27813;43.516;11.890;2022-11-20T11:59:40;12.80;95.60
42145;DHT22;27813;43.516;11.890;2022-11-20T12:03:59;13.10;95.10
42145;DHT22;27813;43.516;11.890;2022-11-20T12:08:16;13.30;94.20
42145;DHT22;27813;43.516;11.890;2022-11-20T12:12:39;13.20;93.50
42145;DHT22;27813;43.516;11.890;2022-11-20T12:16:49;13.10;93.80
42145;DHT22;27813;43.516;11.890;2022-11-20T12:21:11;13.10;94.10
42145;DHT22;27813;43.516;11.890;2022-11-20T12:25:32;13.00;94.20
42145;DHT22;27813;43.516;11.890;2022-11-20T12:30:15;12.80;94.00
42145;DHT22;27813;43.516;11.890;2022-11-20T12:34:38;12.50;94.20
42145;DHT22;27813;43.516;11.890;2022-11-20T12:43:27;12.20;94.30
42145;DHT22;27813;43.516;11.890;2022-11-20T12:48:25;12.20;94.30
42145;DHT22;27813;43.516;11.890;2022-11-20T12:57:27;12.20;94.20
42145;DHT22;27813;43.516;11.890;2022-11-20T13:02:03;12.20;94.10
42145;DHT22;27813;43.516;11.890;2022-11-20T13:06:16;12.20;94.20
42145;DHT22;27813;43.516;11.890;2022-11-20T13:19:56;12.20;94.20
42145;DHT22;27813;43.516;11.890;2022-11-20T13:28:32;11.90;94.10
42145;DHT22;27813;43.516;11.890;2022-11-20T13:32:53;11.90;94.40
42145;DHT22;27813;43.516;11.890;2022-11-20T13:37:00;12.10;94.40
42145;DHT22;27813;43.516;11.890;2022-11-20T13:41:04;12.20;94.00
42145;DHT22;27813;43.516;11.890;2022-11-20T13:45:32;12.30;93.10
42145;DHT22;27813;43.516;11.890;2022-11-20T13:49:40;12.40;92.40
42145;DHT22;27813;43.516;11.890;2022-11-20T14:03:06;12.40;92.40
42145;DHT22;27813;43.516;11.890;2022-11-20T14:07:17;12.30;92.50
42145;DHT22;27813;43.516;11.890;2022-11-20T14:11:30;12.20;92.50
42145;DHT22;27813;43.516;11.890;2022-11-20T14:15:35;12.00;92.40
42145;DHT22;27813;43.516;11.890;2022-11-20T14:19:49;12.00;92.70
42145;DHT22;27813;43.516;11.890;2022-11-20T14:24:18;12.00;92.80
42145;DHT22;27813;43.516;11.890;2022-11-20T14:28:40;11.90;92.60
42145;DHT22;27813;43.516;11.890;2022-11-20T14:32:47;12.00;92.50
42145;DHT22;27813;43.516;11.890;2022-11-20T14:36:59;12.00;92.40
42145;DHT22;27813;43.516;11.890;2022-11-20T14:41:24;12.00;92.40
42145;DHT22;27813;43.516;11.890;2022-11-20T14:45:31;12.00;92.30
42145;DHT22;27813;43.516;11.890;2022-11-20T14:49:54;12.00;92.40
42145;DHT22;27813;43.516;11.890;2022-11-20T14:54:20;12.00;91.90
42145;DHT22;27813;43.516;11.890;2022-11-20T14:58:32;11.90;91.90
42145;DHT22;27813;43.516;11.890;2022-11-20T15:02:46;11.70;91.40
42145;DHT22;27813;43.516;11.890;2022-11-20T15:06:53;11.40;91.20
42145;DHT22;27813;43.516;11.890;2022-11-20T15:11:34;11.00;91.20
42145;DHT22;27813;43.516;11.890;2022-11-20T15:16:14;10.70;91.00
42145;DHT22;27813;43.516;11.890;2022-11-20T15:20:25;10.30;91.30
42145;DHT22;27813;43.516;11.890;2022-11-20T15:24:34;9.90;91.50
42145;DHT22;27813;43.516;11.890;2022-11-20T15:28:43;9.70;91.80
42145;DHT22;27813;43.516;11.890;2022-11-20T15:32:51;9.50;92.00
42145;DHT22;27813;43.516;11.890;2022-11-20T15:36:56;9.20;92.10
42145;DHT22;27813;43.516;11.890;2022-11-20T15:41:00;9.00;92.20
42145;DHT22;27813;43.516;11.890;2022-11-20T15:45:07;8.90;92.60
42145;DHT22;27813;43.516;11.890;2022-11-20T15:49:16;8.70;92.20
42145;DHT22;27813;43.516;11.890;2022-11-20T15:53:23;8.50;92.10
42145;DHT22;27813;43.516;11.890;2022-11-20T15:57:27;8.40;92.10
42145;DHT22;27813;43.516;11.890;2022-11-20T16:01:31;8.20;91.70
42145;DHT22;27813;43.516;11.890;2022-11-20T16:05:36;8.00;91.40
42145;DHT22;27813;43.516;11.890;2022-11-20T16:09:42;7.70;91.20
42145;DHT22;27813;43.516;11.890;2022-11-20T16:13:47;7.50;91.50
42145;DHT22;27813;43.516;11.890;2022-11-20T16:18:12;7.50;91.60
42145;DHT22;27813;43.516;11.890;2022-11-20T16:22:19;7.40;91.60
42145;DHT22;27813;43.516;11.890;2022-11-20T16:26:24;7.20;91.40
42145;DHT22;27813;43.516;11.890;2022-11-20T16:30:28;7.00;91.30
42145;DHT22;27813;43.516;11.890;2022-11-20T16:34:32;6.90;91.30
42145;DHT22;27813;43.516;11.890;2022-11-20T16:38:37;6.80;91.30
42145;DHT22;27813;43.516;11.890;2022-11-20T16:42:41;6.70;91.20
42145;DHT22;27813;43.516;11.890;2022-11-20T16:46:46;6.60;91.00
42145;DHT22;27813;43.516;11.890;2022-11-20T16:50:52;6.40;91.00
42145;DHT22;27813;43.516;11.890;2022-11-20T16:54:57;6.30;90.90
42145;DHT22;27813;43.516;11.890;2022-11-20T16:59:02;6.00;90.60
42145;DHT22;27813;43.516;11.890;2022-11-20T17:03:14;5.70;90.40
42145;DHT22;27813;43.516;11.890;2022-11-20T17:07:20;5.40;90.70
42145;DHT22;27813;43.516;11.890;2022-11-20T17:11:26;5.20;90.80
42145;DHT22;27813;43.516;11.890;2022-11-20T17:15:31;5.00;90.70
42145;DHT22;27813;43.516;11.890;2022-11-20T17:19:35;4.80;90.90
42145;DHT22;27813;43.516;11.890;2022-11-20T17:23:42;4.60;91.00
42145;DHT22;27813;43.516;11.890;2022-11-20T17:27:48;4.50;91.20
42145;DHT22;27813;43.516;11.890;2022-11-20T17:31:53;4.40;91.60
42145;DHT22;27813;43.516;11.890;2022-11-20T17:36:04;4.30;91.70
42145;DHT22;27813;43.516;11.890;2022-11-20T17:40:12;4.10;91.40
42145;DHT22;27813;43.516;11.890;2022-11-20T17:44:19;3.90;91.20
42145;DHT22;27813;43.516;11.890;2022-11-20T17:48:29;3.80;91.20
42145;DHT22;27813;43.516;11.890;2022-11-20T17:52:34;3.70;91.50
42145;DHT22;27813;43.516;11.890;2022-11-20T17:56:38;3.70;91.80
42145;DHT22;27813;43.516;11.890;2022-11-20T18:01:05;3.80;91.90
42145;DHT22;27813;43.516;11.890;2022-11-20T18:05:10;3.80;91.90
42145;DHT22;27813;43.516;11.890;2022-11-20T18:09:17;3.80;91.90
42145;DHT22;27813;43.516;11.890;2022-11-20T18:13:21;3.80;91.80
42145;DHT22;27813;43.516;11.890;2022-11-20T18:17:54;3.70;91.80
42145;DHT22;27813;43.516;11.890;2022-11-20T18:22:00;3.50;91.80
42145;DHT22;27813;43.516;11.890;2022-11-20T18:26:07;3.50;91.60
42145;DHT22;27813;43.516;11.890;2022-11-20T18:30:12;3.40;91.40
42145;DHT22;27813;43.516;11.890;2022-11-20T18:34:17;3.30;91.50
42145;DHT22;27813;43.516;11.890;2022-11-20T18:38:21;3.30;91.70
42145;DHT22;27813;43.516;11.890;2022-11-20T18:42:26;3.30;91.90
42145;DHT22;27813;43.516;11.890;2022-11-20T18:46:51;3.20;91.70
42145;DHT22;27813;43.516;11.890;2022-11-20T18:51:05;3.20;91.80
42145;DHT22;27813;43.516;11.890;2022-11-20T18:55:11;3.20;91.80
42145;DHT22;27813;43.516;11.890;2022-11-20T18:59:19;3.20;91.80
42145;DHT22;27813;43.516;11.890;2022-11-20T19:03:28;3.20;92.00
42145;DHT22;27813;43.516;11.890;2022-11-20T19:07:32;3.20;92.50
42145;DHT22;27813;43.516;11.890;2022-11-20T19:11:38;3.20;92.40
42145;DHT22;27813;43.516;11.890;2022-11-20T19:15:46;3.10;92.20
42145;DHT22;27813;43.516;11.890;2022-11-20T19:19:57;2.90;91.80
42145;DHT22;27813;43.516;11.890;2022-11-20T19:24:12;2.80;91.60
42145;DHT22;27813;43.516;11.890;2022-11-20T19:28:39;2.70;91.50
42145;DHT22;27813;43.516;11.890;2022-11-20T19:39:20;2.50;91.90
42145;DHT22;27813;43.516;11.890;2022-11-20T19:48:11;2.50;92.00
42145;DHT22;27813;43.516;11.890;2022-11-20T19:52:17;2.60;92.00
42145;DHT22;27813;43.516;11.890;2022-11-20T19:56:26;2.70;92.00
42145;DHT22;27813;43.516;11.890;2022-11-20T20:00:32;2.70;91.80
42145;DHT22;27813;43.516;11.890;2022-11-20T20:04:38;2.70;92.10
42145;DHT22;27813;43.516;11.890;2022-11-20T20:08:44;2.70;92.30
42145;DHT22;27813;43.516;11.890;2022-11-20T20:14:03;2.70;92.20
42145;DHT22;27813;43.516;11.890;2022-11-20T20:18:13;2.70;92.50
42145;DHT22;27813;43.516;11.890;2022-11-20T20:22:18;2.60;92.50
42145;DHT22;27813;43.516;11.890;2022-11-20T20:26:29;2.50;92.60
42145;DHT22;27813;43.516;11.890;2022-11-20T20:30:37;2.50;93.10
42145;DHT22;27813;43.516;11.890;2022-11-20T20:34:44;2.70;93.40
42145;DHT22;27813;43.516;11.890;2022-11-20T20:38:55;2.70;93.50
42145;DHT22;27813;43.516;11.890;2022-11-20T20:43:07;2.70;93.50
42145;DHT22;27813;43.516;11.890;2022-11-20T20:47:20;2.70;93.60
42145;DHT22;27813;43.516;11.890;2022-11-20T20:51:35;2.70;93.60
42145;DHT22;27813;43.516;11.890;2022-11-20T20:55:59;2.70;93.50
42145;DHT22;27813;43.516;11.890;2022-11-20T21:00:11;2.60;93.10
42145;DHT22;27813;43.516;11.890;2022-11-20T21:04:19;2.40;92.80
42145;DHT22;27813;43.516;11.890;2022-11-20T21:08:32;2.30;92.70
42145;DHT22;27813;43.516;11.890;2022-11-20T21:12:52;2.20;93.00
42145;DHT22;27813;43.516;11.890;2022-11-20T21:17:51;2.10;92.80
42145;DHT22;27813;43.516;11.890;2022-11-20T21:22:17;2.00;92.50
42145;DHT22;27813;43.516;11.890;2022-11-20T21:26:39;1.90;92.50
42145;DHT22;27813;43.516;11.890;2022-11-20T21:36:16;1.90;92.70
42145;DHT22;27813;43.516;11.890;2022-11-20T21:40:39;1.80;92.90
42145;DHT22;27813;43.516;11.890;2022-11-20T21:45:06;1.90;92.80
42145;DHT22;27813;43.516;11.890;2022-11-20T21:49:18;2.00;93.30
42145;DHT22;27813;43.516;11.890;2022-11-20T21:53:28;2.10;93.00
42145;DHT22;27813;43.516;11.890;2022-11-20T21:59:31;2.20;93.20
42145;DHT22;27813;43.516;11.890;2022-11-20T22:03:53;2.20;93.30
42145;DHT22;27813;43.516;11.890;2022-11-20T22:08:17;2.20;93.20
42145;DHT22;27813;43.516;11.890;2022-11-20T22:13:18;2.10;93.00
42145;DHT22;27813;43.516;11.890;2022-11-20T22:18:33;2.00;92.90
42145;DHT22;27813;43.516;11.890;2022-11-20T22:23:45;1.90;92.90
42145;DHT22;27813;43.516;11.890;2022-11-20T22:34:10;1.80;93.60
42145;DHT22;27813;43.516;11.890;2022-11-20T22:38:43;1.80;93.50
42145;DHT22;27813;43.516;11.890;2022-11-20T22:49:27;1.80;93.50
42145;DHT22;27813;43.516;11.890;2022-11-20T22:53:52;1.70;93.60
42145;DHT22;27813;43.516;11.890;2022-11-20T22:58:59;1.70;93.80
42145;DHT22;27813;43.516;11.890;2022-11-20T23:03:54;1.70;93.60
42145;DHT22;27813;43.516;11.890;2022-11-20T23:13:46;1.70;93.50
42145;DHT22;27813;43.516;11.890;2022-11-20T23:18:44;1.70;93.50
42145;DHT22;27813;43.516;11.890;2022-11-20T23:23:02;1.60;93.90
42145;DHT22;27813;43.516;11.890;2022-11-20T23:32:51;1.90;94.30
42145;DHT22;27813;43.516;11.890;2022-11-20T23:36:58;1.90;94.20
42145;DHT22;27813;43.516;11.890;2022-11-20T23:41:07;1.90;94.00
42145;DHT22;27813;43.516;11.890;2022-11-20T23:45:12;1.80;93.90
42145;DHT22;27813;43.516;11.890;2022-11-20T23:49:17;1.70;93.90
42145;DHT22;27813;43.516;11.890;2022-11-20T23:53:23;1.60;93.60
42145;DHT22;27813;43.516;11.890;2022-11-20T23:57:28;1.50;93.40
